^^
Station Historical Data
 
Daily Summary for March 30, 2017 Units:  Metric    English   Both
« Previous Day
Next Day »
Daily Weekly Monthly Yearly Custom
  Current: High: Low: Average:
Temperature: 10.8 °C 24.8 °C 3.8 °C 14.3 °C
Dew Point: 4.1 °C 10.6 °C 0.1 °C 5.4 °C
Humidity: 63% 79% 38% 58%
Wind Speed: 0km/h 14.5km/h 0km/h 1.1km/h
Wind Gust: 0km/h 19.3km/h - -
WindCalm - - SSW
Pressure: 1023.2 hPa 1023.2 hPa 1017.5 hPa -
Precipitation: 0 mm      
Historical Graphs
 
 
Tabular Data for March 30, 2017
Time Temperature Dew Point Pressure Wind Wind Speed Wind Gust Humidity Rainfall Rate (Hourly) solar Conditions
00:00 9.3 °C 2.8 °C 1019.2 hPa Calm     64% 0 mm WeatherDisplay:10.37 W/m2 CLR
00:09 9 °C 2.6 °C 1019.2 hPa Calm     64% 0 mm WeatherDisplay:10.37 W/m2 CLR
00:20 8.6 °C 2.2 °C 1019.2 hPa Calm     64% 0 mm WeatherDisplay:10.37 W/m2 CLR
00:30 8.2 °C 2.2 °C 1019.2 hPa Calm     66% 0 mm WeatherDisplay:10.37 W/m2 CLR
00:40 7.9 °C 1.9 °C 1019.2 hPa Calm     66% 0 mm WeatherDisplay:10.37 W/m2 CLR
00:50 7.6 °C 1.7 °C 1019.5 hPa Calm     66% 0 mm WeatherDisplay:10.37 W/m2 CLR
01:00 7.3 °C 1.4 °C 1019.2 hPa Calm     66% 0 mm WeatherDisplay:10.37 W/m2 CLR
01:10 7.2 °C 1.5 °C 1019.2 hPa Calm     67% 0 mm WeatherDisplay:10.37 W/m2 CLR
01:20 7.2 °C 1.7 °C 1019.2 hPa Calm     68% 0 mm WeatherDisplay:10.37 W/m2 CLR
01:30 7.2 °C 1.8 °C 1019.2 hPa Calm     69% 0 mm WeatherDisplay:10.37 W/m2 CLR
01:40 7.1 °C 1.8 °C 1018.8 hPa Calm     69% 0 mm WeatherDisplay:10.37 W/m2 CLR
01:50 7 °C 1.7 °C 1019.2 hPa Calm     69% 0 mm WeatherDisplay:10.37 W/m2 CLR
02:00 6.9 °C 1.6 °C 1018.8 hPa Calm     69% 0 mm WeatherDisplay:10.37 W/m2 CLR
02:10 6.9 °C 1.6 °C 1018.8 hPa Calm     69% 0 mm WeatherDisplay:10.37 W/m2 CLR
02:20 6.8 °C 1.7 °C 1018.8 hPa Calm     70% 0 mm WeatherDisplay:10.37 W/m2 CLR
02:30 6.6 °C 1.7 °C 1018.8 hPa Calm     71% 0 mm WeatherDisplay:10.37 W/m2 CLR
02:40 6.5 °C 1.6 °C 1018.8 hPa Calm     71% 0 mm WeatherDisplay:10.37 W/m2 CLR
02:50 6.2 °C 1.4 °C 1018.8 hPa Calm     71% 0 mm WeatherDisplay:10.37 W/m2 CLR
03:00 5.9 °C 1.1 °C 1018.8 hPa Calm     71% 0 mm WeatherDisplay:10.37 W/m2 CLR
03:10 5.8 °C 0.9 °C 1018.8 hPa Calm     71% 0 mm WeatherDisplay:10.37 W/m2 CLR
03:20 5.6 °C 0.9 °C 1018.8 hPa Calm     72% 0 mm WeatherDisplay:10.37 W/m2 CLR
03:30 5.5 °C 0.9 °C 1018.5 hPa Calm     72% 0 mm WeatherDisplay:10.37 W/m2 CLR
03:40 5.3 °C 0.7 °C 1018.8 hPa Calm     72% 0 mm WeatherDisplay:10.37 W/m2 CLR
03:50 5.2 °C 0.8 °C 1018.8 hPa Calm     73% 0 mm WeatherDisplay:10.37 W/m2 CLR
04:00 5 °C 0.6 °C 1018.5 hPa Calm     73% 0 mm WeatherDisplay:10.37 W/m2 CLR
04:10 4.9 °C 0.4 °C 1018.8 hPa Calm     73% 0 mm WeatherDisplay:10.37 W/m2 CLR
04:20 4.7 °C 0.5 °C 1018.8 hPa Calm     74% 0 mm WeatherDisplay:10.37 W/m2 CLR
04:30 4.6 °C 0.3 °C 1018.8 hPa Calm     74% 0 mm WeatherDisplay:10.37 W/m2 CLR
04:40 4.4 °C 0.2 °C 1018.8 hPa Calm     74% 0 mm WeatherDisplay:10.37 W/m2 CLR
04:50 4.3 °C 0.3 °C 1018.8 hPa Calm     75% 0 mm WeatherDisplay:10.37 W/m2 CLR
05:00 4.2 °C 0.2 °C 1019.2 hPa Calm     75% 0 mm WeatherDisplay:10.37 W/m2 CLR
05:10 4.1 °C 0.1 °C 1018.8 hPa Calm     75% 0 mm WeatherDisplay:10.37 W/m2 CLR
05:20 4.1 °C 0.2 °C 1018.8 hPa Calm     76% 0 mm WeatherDisplay:10.37 W/m2 CLR
05:30 4 °C 0.2 °C 1018.8 hPa Calm     76% 0 mm WeatherDisplay:10.37 W/m2 CLR
05:40 3.9 °C 0.1 °C 1018.8 hPa Calm     76% 0 mm WeatherDisplay:10.37 W/m2 CLR
05:50 3.9 °C 0.1 °C 1019.2 hPa Calm     76% 0 mm WeatherDisplay:10.37 W/m2 CLR
06:00 3.8 °C 0.1 °C 1019.2 hPa Calm     77% 0 mm WeatherDisplay:10.37 W/m2 CLR
06:10 3.8 °C 0.2 °C 1019.2 hPa Calm     77% 0 mm WeatherDisplay:10.37 W/m2 CLR
06:20 3.9 °C 0.4 °C 1019.2 hPa Calm     78% 0 mm WeatherDisplay:10.37 W/m2 CLR
06:30 3.9 °C 0.4 °C 1019.5 hPa Calm     78% 0 mm WeatherDisplay:10.37 W/m2 CLR
06:40 3.8 °C 0.3 °C 1019.5 hPa Calm     78% 0 mm WeatherDisplay:10.37 W/m2 CLR
06:50 3.8 °C 0.3 °C 1019.2 hPa Calm     78% 0 mm WeatherDisplay:10.37 W/m2 CLR
07:00 3.9 °C 0.6 °C 1019.5 hPa Calm     79% 0 mm WeatherDisplay:10.37 W/m2 CLR
07:10 3.9 °C 0.6 °C 1019.2 hPa Calm     79% 0 mm WeatherDisplay:10.37 W/m2 CLR
07:20 4.2 °C 0.9 °C 1019.5 hPa Calm     79% 0 mm WeatherDisplay:10.37 W/m2 CLR
07:30 4.4 °C 1.1 °C 1019.2 hPa Calm     79% 0 mm WeatherDisplay:10.37 W/m2 CLR
07:40 4.7 °C 1.4 °C 1019.5 hPa Calm     79% 0 mm WeatherDisplay:10.37 W/m2 CLR
07:50 5.1 °C 1.8 °C 1019.2 hPa Calm     79% 0 mm WeatherDisplay:10.37 W/m2 CLR
08:00 5.5 °C 1.9 °C 1019.5 hPa Calm     78% 0 mm WeatherDisplay:10.37 W/m2 CLR
08:10 6 °C 2.4 °C 1019.2 hPa Calm     78% 0 mm WeatherDisplay:10.37 W/m2 CLR
08:20 6.4 °C 2.7 °C 1019.5 hPa Calm     77% 0 mm WeatherDisplay:10.37 W/m2 CLR
08:30 7.1 °C 3.3 °C 1019.5 hPa Calm     77% 0 mm WeatherDisplay:10.37 W/m2 CLR
08:40 7.9 °C 3.9 °C 1019.5 hPa Calm     76% 0 mm WeatherDisplay:10.37 W/m2 CLR
08:50 9.4 °C 5.3 °C 1019.9 hPa Calm     76% 0 mm WeatherDisplay:10.37 W/m2 CLR
09:00 10.4 °C 5.8 °C 1019.5 hPa Calm     73% 0 mm WeatherDisplay:10.37 W/m2 CLR
09:10 11.8 °C 6.7 °C 1019.9 hPa Calm     71% 0 mm WeatherDisplay:10.37 W/m2 CLR
09:20 12.9 °C 6.9 °C 1019.5 hPa Calm     67% 0 mm WeatherDisplay:10.37 W/m2 CLR
09:30 14.1 °C 7.6 °C 1019.2 hPa Calm   1.6 km/h 65% 0 mm WeatherDisplay:10.37 W/m2 CLR
09:40 15.2 °C 8 °C 1019.5 hPa Calm     62% 0 mm WeatherDisplay:10.37 W/m2 CLR
09:50 16.3 °C 8.3 °C 1019.9 hPa Calm     59% 0 mm WeatherDisplay:10.37 W/m2 CLR
10:00 17.1 °C 8.8 °C 1019.5 hPa Calm     58% 0 mm WeatherDisplay:10.37 W/m2 CLR
10:10 17.5 °C 8.6 °C 1019.2 hPa Calm     56% 0 mm WeatherDisplay:10.37 W/m2 CLR
10:20 18.2 °C 8.8 °C 1019.2 hPa Calm     54% 0 mm WeatherDisplay:10.37 W/m2 CLR
10:30 19.3 °C 9.2 °C 1019.2 hPa Calm     52% 0 mm WeatherDisplay:10.37 W/m2 CLR
10:40 19.9 °C 9.7 °C 1019.2 hPa Calm   1.6 km/h 52% 0 mm WeatherDisplay:10.37 W/m2 CLR
10:50 20.3 °C 9.6 °C 1019.2 hPa Calm     50% 0 mm WeatherDisplay:10.37 W/m2 CLR
11:00 20.9 °C 10.1 °C 1019.2 hPa Calm   4.8 km/h 50% 0 mm WeatherDisplay:10.37 W/m2 CLR
11:10 21.1 °C 10 °C 1018.8 hPa Calm   1.6 km/h 49% 0 mm WeatherDisplay:10.37 W/m2 CLR
11:20 21.8 °C 10 °C 1019.2 hPa Calm   1.6 km/h 47% 0 mm WeatherDisplay:10.37 W/m2 CLR
11:30 22.2 °C 10 °C 1018.8 hPa NE 1.6 km/h 8 km/h 46% 0 mm WeatherDisplay:10.37 W/m2 CLR
11:40 22.5 °C 10.3 °C 1018.8 hPa NNE 3.2 km/h 6.4 km/h 46% 0 mm WeatherDisplay:10.37 W/m2 CLR
11:50 22.8 °C 10.2 °C 1018.5 hPa Calm   9.7 km/h 45% 0 mm WeatherDisplay:10.37 W/m2 CLR
12:00 23.2 °C 10.2 °C 1018.5 hPa NE 3.2 km/h 11.3 km/h 44% 0 mm WeatherDisplay:10.37 W/m2 CLR
12:10 23.6 °C 10.6 °C 1018.5 hPa Calm   16.1 km/h 44% 0 mm WeatherDisplay:10.37 W/m2 CLR
12:20 23.9 °C 10.6 °C 1018.2 hPa Calm   11.3 km/h 43% 0 mm WeatherDisplay:10.37 W/m2 CLR
12:30 23.8 °C 10.1 °C 1018.2 hPa North 1.6 km/h 6.4 km/h 42% 0 mm WeatherDisplay:10.37 W/m2 CLR
12:40 23.9 °C 9.8 °C 1018.2 hPa NNW 9.7 km/h 14.5 km/h 41% 0 mm WeatherDisplay:10.37 W/m2 CLR
12:50 23.9 °C 9.1 °C 1018.2 hPa NNW 1.6 km/h 14.5 km/h 39% 0 mm WeatherDisplay:10.37 W/m2 CLR
13:00 24.1 °C 9.3 °C 1018.5 hPa North 4.8 km/h 12.9 km/h 39% 0 mm WeatherDisplay:10.37 W/m2 CLR
13:10 24.6 °C 9.7 °C 1018.2 hPa NNE 4.8 km/h 16.1 km/h 39% 0 mm WeatherDisplay:10.37 W/m2 CLR
13:20 24.8 °C 9.5 °C 1018.5 hPa North 3.2 km/h 17.7 km/h 38% 0 mm WeatherDisplay:10.37 W/m2 CLR
13:30 24.6 °C 9.3 °C 1018.2 hPa North 14.5 km/h 19.3 km/h 38% 0 mm WeatherDisplay:10.37 W/m2 CLR
13:40 24.1 °C 8.9 °C 1018.2 hPa North 1.6 km/h 14.5 km/h 38% 0 mm WeatherDisplay:10.37 W/m2 CLR
13:50 23.7 °C 8.6 °C 1018.2 hPa North 4.8 km/h 19.3 km/h 38% 0 mm WeatherDisplay:10.37 W/m2 CLR
14:00 23.8 °C 8.6 °C 1018.2 hPa Calm   17.7 km/h 38% 0 mm WeatherDisplay:10.37 W/m2 CLR
14:10 23.5 °C 8.7 °C 1017.8 hPa North 8 km/h 14.5 km/h 39% 0 mm WeatherDisplay:10.37 W/m2 CLR
14:20 23.1 °C 8.3 °C 1017.8 hPa Calm   14.5 km/h 39% 0 mm WeatherDisplay:10.37 W/m2 CLR
14:30 22.8 °C 8.5 °C 1017.8 hPa NNW 4.8 km/h 12.9 km/h 40% 0 mm WeatherDisplay:10.37 W/m2 CLR
14:40 22.8 °C 8.5 °C 1017.8 hPa NNW 3.2 km/h 19.3 km/h 40% 0 mm WeatherDisplay:10.37 W/m2 CLR
14:50 23.2 °C 9.3 °C 1017.5 hPa North 4.8 km/h 19.3 km/h 41% 0 mm WeatherDisplay:10.37 W/m2 CLR
15:00 23.9 °C 9.1 °C 1017.8 hPa NNW 1.6 km/h 19.3 km/h 39% 0 mm WeatherDisplay:10.37 W/m2 CLR
15:10 24.3 °C 9.1 °C 1017.8 hPa NNW 1.6 km/h 19.3 km/h 38% 0 mm WeatherDisplay:10.37 W/m2 CLR
15:20 24.1 °C 9.3 °C 1017.8 hPa NW 4.8 km/h 16.1 km/h 39% 0 mm WeatherDisplay:10.37 W/m2 CLR
15:30 23.8 °C 9 °C 1017.8 hPa NW 3.2 km/h 14.5 km/h 39% 0 mm WeatherDisplay:10.37 W/m2 CLR
15:40 23.6 °C 8.8 °C 1017.5 hPa WNW 8 km/h 12.9 km/h 39% 0 mm WeatherDisplay:10.37 W/m2 CLR
15:50 23.6 °C 9.2 °C 1017.8 hPa WNW 3.2 km/h 11.3 km/h 40% 0 mm WeatherDisplay:10.37 W/m2 CLR
16:00 23.9 °C 9.8 °C 1017.8 hPa NNW 1.6 km/h 11.3 km/h 41% 0 mm WeatherDisplay:10.37 W/m2 CLR
16:20 23.8 °C 9.4 °C 1018.2 hPa Calm   14.5 km/h 40% 0 mm WeatherDisplay:10.37 W/m2 CLR
16:30 23.9 °C 9.1 °C 1018.2 hPa NNW 1.6 km/h 11.3 km/h 39% 0 mm WeatherDisplay:10.37 W/m2 CLR
16:40 24.1 °C 9.3 °C 1017.8 hPa NNW 4.8 km/h 11.3 km/h 39% 0 mm WeatherDisplay:10.37 W/m2 CLR
16:50 23.9 °C 9.8 °C 1018.2 hPa NNW 4.8 km/h 17.7 km/h 41% 0 mm WeatherDisplay:10.37 W/m2 CLR
17:00 23.9 °C 9.5 °C 1017.8 hPa North 3.2 km/h 11.3 km/h 40% 0 mm WeatherDisplay:10.37 W/m2 CLR
17:10 23.8 °C 9.8 °C 1018.2 hPa Calm   11.3 km/h 41% 0 mm WeatherDisplay:10.37 W/m2 CLR
17:20 23.5 °C 9.1 °C 1018.2 hPa North 4.8 km/h 17.7 km/h 40% 0 mm WeatherDisplay:10.37 W/m2 CLR
17:30 22.9 °C 9.3 °C 1018.5 hPa North 3.2 km/h 17.7 km/h 42% 0 mm WeatherDisplay:10.37 W/m2 CLR
17:40 22.4 °C 9.2 °C 1018.5 hPa North 4.8 km/h 11.3 km/h 43% 0 mm WeatherDisplay:10.37 W/m2 CLR
17:50 22.1 °C 8.9 °C 1018.5 hPa North 4.8 km/h 16.1 km/h 43% 0 mm WeatherDisplay:10.37 W/m2 CLR
18:00 21.8 °C 8.9 °C 1018.5 hPa North 4.8 km/h 11.3 km/h 44% 0 mm WeatherDisplay:10.37 W/m2 CLR
18:10 21.3 °C 8.8 °C 1018.5 hPa North 4.8 km/h 12.9 km/h 45% 0 mm WeatherDisplay:10.37 W/m2 CLR
18:20 20.8 °C 8.4 °C 1019.2 hPa North 3.2 km/h 14.5 km/h 45% 0 mm WeatherDisplay:10.37 W/m2 CLR
18:30 20.3 °C 8.3 °C 1019.2 hPa North 4.8 km/h 12.9 km/h 46% 0 mm WeatherDisplay:10.37 W/m2 CLR
18:40 19.9 °C 8.2 °C 1019.5 hPa NNE 4.8 km/h 11.3 km/h 47% 0 mm WeatherDisplay:10.37 W/m2 CLR
18:50 19.6 °C 8 °C 1019.2 hPa Calm   11.3 km/h 47% 0 mm WeatherDisplay:10.37 W/m2 CLR
19:00 19.3 °C 8 °C 1019.5 hPa Calm   8 km/h 48% 0 mm WeatherDisplay:10.37 W/m2 CLR
19:10 18.9 °C 7.7 °C 1019.9 hPa Calm   6.4 km/h 48% 0 mm WeatherDisplay:10.37 W/m2 CLR
19:20 18.6 °C 7.6 °C 1020.2 hPa North 1.6 km/h 12.9 km/h 49% 0 mm WeatherDisplay:10.37 W/m2 CLR
19:30 18.3 °C 7.4 °C 1020.5 hPa North 3.2 km/h 11.3 km/h 49% 0 mm WeatherDisplay:10.37 W/m2 CLR
19:40 18.1 °C 7.2 °C 1020.5 hPa Calm   9.7 km/h 49% 0 mm WeatherDisplay:10.37 W/m2 CLR
19:50 17.8 °C 7.2 °C 1020.9 hPa Calm     50% 0 mm WeatherDisplay:10.37 W/m2 CLR
20:00 17.6 °C 7.1 °C 1021.2 hPa Calm   6.4 km/h 50% 0 mm WeatherDisplay:10.37 W/m2 CLR
20:10 17.3 °C 6.8 °C 1021.2 hPa Calm     50% 0 mm WeatherDisplay:10.37 W/m2 CLR
20:20 17.1 °C 6.6 °C 1021.2 hPa Calm     50% 0 mm WeatherDisplay:10.37 W/m2 CLR
20:30 16.8 °C 6.6 °C 1021.6 hPa Calm     51% 0 mm WeatherDisplay:10.37 W/m2 CLR
20:40 16.4 °C 6.5 °C 1021.9 hPa Calm     52% 0 mm WeatherDisplay:10.37 W/m2 CLR
20:50 15.9 °C 6.3 °C 1021.9 hPa Calm   4.8 km/h 53% 0 mm WeatherDisplay:10.37 W/m2 CLR
21:00 15.6 °C 6.1 °C 1022.2 hPa Calm   3.2 km/h 53% 0 mm WeatherDisplay:10.37 W/m2 CLR
21:10 15.4 °C 5.8 °C 1022.2 hPa Calm     53% 0 mm WeatherDisplay:10.37 W/m2 CLR
21:20 15.1 °C 5.8 °C 1022.6 hPa Calm     54% 0 mm WeatherDisplay:10.37 W/m2 CLR
21:30 14.9 °C 5.7 °C 1022.6 hPa Calm     54% 0 mm WeatherDisplay:10.37 W/m2 CLR
21:40 14.7 °C 5.7 °C 1022.6 hPa Calm     55% 0 mm WeatherDisplay:10.37 W/m2 CLR
21:50 14.3 °C 5.4 °C 1022.6 hPa Calm     55% 0 mm WeatherDisplay:10.37 W/m2 CLR
22:00 14.2 °C 5.3 °C 1022.6 hPa Calm   8 km/h 55% 0 mm WeatherDisplay:10.37 W/m2 CLR
22:10 14.1 °C 5.2 °C 1022.6 hPa Calm   4.8 km/h 55% 0 mm WeatherDisplay:10.37 W/m2 CLR
22:20 13.8 °C 5.2 °C 1022.9 hPa Calm     56% 0 mm WeatherDisplay:10.37 W/m2 CLR
22:30 13.4 °C 5.1 °C 1022.9 hPa Calm     57% 0 mm WeatherDisplay:10.37 W/m2 CLR
22:40 13.2 °C 4.8 °C 1022.9 hPa Calm     57% 0 mm WeatherDisplay:10.37 W/m2 CLR
22:50 12.9 °C 4.8 °C 1022.9 hPa Calm     58% 0 mm WeatherDisplay:10.37 W/m2 CLR
23:00 12.5 °C 4.7 °C 1022.9 hPa Calm     59% 0 mm WeatherDisplay:10.37 W/m2 CLR
23:10 11.8 °C 4.3 °C 1022.9 hPa Calm     60% 0 mm WeatherDisplay:10.37 W/m2 CLR
23:20 11.4 °C 4.4 °C 1022.6 hPa Calm     62% 0 mm WeatherDisplay:10.37 W/m2 CLR
23:30 11.3 °C 4.3 °C 1022.9 hPa Calm     62% 0 mm WeatherDisplay:10.37 W/m2 CLR
23:50 10.8 °C 4.1 °C 1023.2 hPa Calm     63% 0 mm WeatherDisplay:10.37 W/m2 CLR
Knjazevac, Serbia
Compliments of Weather Underground - 1.5 mb